createdAt,value
2018-09-10T00:01:42.146Z,10.87
2018-09-10T00:04:11.119Z,10.27
2018-09-10T00:06:40.106Z,10.00
2018-09-10T00:09:09.539Z,10.43
2018-09-10T00:11:39.191Z,9.50
2018-09-10T00:14:08.186Z,9.87
2018-09-10T00:16:37.215Z,12.93
2018-09-10T00:19:06.236Z,11.17
2018-09-10T00:21:35.263Z,9.83
2018-09-10T00:24:04.263Z,8.07
2018-09-10T00:26:33.497Z,8.67
2018-09-10T00:29:02.505Z,11.83
2018-09-10T00:31:31.500Z,10.47
2018-09-10T00:34:00.509Z,10.27
2018-09-10T00:36:29.498Z,10.50
2018-09-10T00:38:58.509Z,10.60
2018-09-10T00:41:27.882Z,10.93
2018-09-10T00:43:56.899Z,8.33
2018-09-10T00:46:25.890Z,12.63
2018-09-10T00:48:54.882Z,10.20
2018-09-10T00:51:24.202Z,10.27
2018-09-10T00:53:53.306Z,10.93
2018-09-10T00:56:22.662Z,12.97
2018-09-10T00:58:51.908Z,10.50
2018-09-10T01:01:21.554Z,12.63
2018-09-10T01:03:50.937Z,10.93
2018-09-10T01:06:19.953Z,10.03
2018-09-10T01:08:48.958Z,10.73
2018-09-10T01:11:17.963Z,9.57
2018-09-10T01:13:46.962Z,11.73
2018-09-10T01:16:15.999Z,7.90
2018-09-10T01:18:44.999Z,9.27
2018-09-10T01:21:14.030Z,9.93
2018-09-10T01:23:43.160Z,9.30
2018-09-10T01:26:12.182Z,8.97
2018-09-10T01:28:41.176Z,8.97
2018-09-10T01:31:10.389Z,10.10
2018-09-10T01:33:44.762Z,9.13
2018-09-10T01:36:14.077Z,10.03
2018-09-10T01:38:43.114Z,7.17
2018-09-10T01:41:19.013Z,7.83
2018-09-10T01:43:48.172Z,7.80
2018-09-10T01:46:17.245Z,6.87
2018-09-10T01:48:46.283Z,6.80
2018-09-10T01:51:15.340Z,8.80
2018-09-10T01:53:44.415Z,7.43
2018-09-10T01:56:13.718Z,7.00
2018-09-10T01:58:42.976Z,6.50
2018-09-10T02:01:12.215Z,8.03
2018-09-10T02:03:41.254Z,6.70
2018-09-10T02:06:10.433Z,6.80
2018-09-10T02:08:39.601Z,8.43
2018-09-10T02:11:08.679Z,6.87
2018-09-10T02:13:37.975Z,8.77
2018-09-10T02:16:11.091Z,6.17
2018-09-10T02:18:40.325Z,6.43
2018-09-10T02:21:09.345Z,6.67
2018-09-10T02:23:38.428Z,6.17
2018-09-10T02:26:07.644Z,6.33
2018-09-10T02:28:36.921Z,5.53
2018-09-10T02:31:06.377Z,5.77
2018-09-10T02:33:35.396Z,7.60
2018-09-10T02:36:04.878Z,5.20
2018-09-10T02:38:33.952Z,4.93
2018-09-10T02:41:02.928Z,6.73
2018-09-10T02:43:31.966Z,5.93
2018-09-10T02:46:01.203Z,6.03
2018-09-10T02:48:30.262Z,6.07
2018-09-10T02:50:59.265Z,5.07
2018-09-10T02:53:28.264Z,4.23
2018-09-10T02:55:57.300Z,8.77
2018-09-10T02:58:26.316Z,4.90
2018-09-10T03:00:55.357Z,6.03
2018-09-10T03:03:24.389Z,5.57
2018-09-10T03:05:53.422Z,4.23
2018-09-10T03:08:22.442Z,6.80
2018-09-10T03:10:51.496Z,7.60
2018-09-10T03:13:20.532Z,4.87
2018-09-10T03:15:49.609Z,5.30
2018-09-10T03:18:18.828Z,6.23
2018-09-10T03:20:48.217Z,7.37
2018-09-10T03:23:17.226Z,6.37
2018-09-10T03:25:46.580Z,9.07
2018-09-10T03:28:15.675Z,5.23
2018-09-10T03:30:44.978Z,7.03
2018-09-10T03:33:14.159Z,6.00
2018-09-10T03:35:43.170Z,6.30
2018-09-10T03:38:12.451Z,5.17
2018-09-10T03:40:41.468Z,6.83
2018-09-10T03:43:10.480Z,5.60
2018-09-10T03:45:39.479Z,3.63
2018-09-10T03:48:08.892Z,4.73
2018-09-10T03:50:37.889Z,5.23
2018-09-10T03:53:07.095Z,4.60
2018-09-10T03:55:36.324Z,6.23
2018-09-10T03:58:05.435Z,6.40
2018-09-10T04:00:34.590Z,6.07
2018-09-10T04:03:03.672Z,6.43
2018-09-10T04:05:32.912Z,6.97
2018-09-10T04:08:02.056Z,5.87
2018-09-10T04:10:31.048Z,4.83
2018-09-10T04:13:00.061Z,6.87
2018-09-10T04:15:29.491Z,5.03
2018-09-10T04:17:58.769Z,5.23
2018-09-10T04:20:28.005Z,7.10
2018-09-10T04:22:57.316Z,5.27
2018-09-10T04:25:26.314Z,5.77
2018-09-10T04:27:55.309Z,6.27
2018-09-10T04:30:25.073Z,7.60
2018-09-10T04:32:54.356Z,5.67
2018-09-10T04:35:23.644Z,7.63
2018-09-10T04:37:52.665Z,6.00
2018-09-10T04:40:22.024Z,6.00
2018-09-10T04:42:51.229Z,8.30
2018-09-10T04:45:20.232Z,6.20
2018-09-10T04:47:49.312Z,5.77
2018-09-10T04:50:18.389Z,5.20
2018-09-10T04:52:47.457Z,6.20
2018-09-10T04:55:16.752Z,4.70
2018-09-10T04:57:45.876Z,6.10
2018-09-10T05:00:14.888Z,6.37
2018-09-10T05:02:44.111Z,6.43
2018-09-10T05:05:13.106Z,6.97
2018-09-10T05:07:42.155Z,4.23
2018-09-10T05:10:11.147Z,4.67
2018-09-10T05:12:40.351Z,5.37
2018-09-10T05:15:09.421Z,5.00
2018-09-10T05:17:38.446Z,7.17
2018-09-10T05:20:07.743Z,5.60
2018-09-10T05:22:43.134Z,7.30
2018-09-10T05:25:12.176Z,10.27
2018-09-10T05:27:41.198Z,7.83
2018-09-10T05:30:11.471Z,7.70
2018-09-10T05:32:40.809Z,6.83
2018-09-10T05:35:09.811Z,7.73
2018-09-10T05:37:38.851Z,8.00
2018-09-10T05:40:09.308Z,11.80
2018-09-10T05:42:38.497Z,10.73
2018-09-10T05:45:09.814Z,6.43
2018-09-10T05:47:39.169Z,7.57
2018-09-10T05:50:09.157Z,8.87
2018-09-10T05:52:38.533Z,11.80
2018-09-10T05:55:07.859Z,9.57
2018-09-10T05:57:37.158Z,7.43
2018-09-10T06:00:08.484Z,7.43
2018-09-10T06:02:37.500Z,11.70
2018-09-10T06:05:06.586Z,9.70
2018-09-10T06:07:35.675Z,10.57
2018-09-10T06:10:04.825Z,8.67
2018-09-10T06:12:33.844Z,11.57
2018-09-10T06:15:02.899Z,10.53
2018-09-10T06:17:31.913Z,9.57
2018-09-10T06:20:01.209Z,9.03
2018-09-10T06:22:30.218Z,15.60
2018-09-10T06:24:59.550Z,11.03
2018-09-10T06:27:28.851Z,11.53
2018-09-10T06:29:57.871Z,14.20
2018-09-10T06:32:26.979Z,12.97
2018-09-10T06:34:56.366Z,7.87
2018-09-10T06:37:25.388Z,7.67
2018-09-10T06:39:54.444Z,5.10
2018-09-10T06:42:23.561Z,9.60
2018-09-10T06:44:52.569Z,12.43
2018-09-10T06:47:21.878Z,9.93
2018-09-10T06:49:50.922Z,9.40
2018-09-10T06:52:20.226Z,10.83
2018-09-10T06:54:49.354Z,11.10
2018-09-10T06:57:18.615Z,8.93
2018-09-10T06:59:47.700Z,8.33
2018-09-10T07:02:16.719Z,11.63
2018-09-10T07:04:46.052Z,14.27
2018-09-10T07:07:15.066Z,13.40
2018-09-10T07:09:44.384Z,14.83
2018-09-10T07:12:13.594Z,13.43
2018-09-10T07:14:42.807Z,8.03
2018-09-10T07:17:11.871Z,13.13
2018-09-10T07:19:41.329Z,13.10
2018-09-10T07:22:10.344Z,9.90
2018-09-10T07:24:39.484Z,17.80
2018-09-10T07:27:08.541Z,19.50
2018-09-10T07:29:37.659Z,13.83
2018-09-10T07:32:06.727Z,15.37
2018-09-10T07:34:35.824Z,16.73
2018-09-10T07:37:04.768Z,14.17
2018-09-10T07:39:33.827Z,12.53
2018-09-10T07:42:02.928Z,14.17
2018-09-10T07:44:31.936Z,19.83
2018-09-10T07:47:00.970Z,16.63
2018-09-10T07:49:30.024Z,25.47
2018-09-10T07:51:59.048Z,16.27
2018-09-10T07:54:28.120Z,43.40
2018-09-10T07:56:57.123Z,28.70
2018-09-10T07:59:26.372Z,22.53
2018-09-10T08:01:55.372Z,21.60
2018-09-10T08:04:24.492Z,20.57
2018-09-10T08:06:53.783Z,18.57
2018-09-10T08:09:22.930Z,17.03
2018-09-10T08:11:51.906Z,13.37
2018-09-10T08:14:20.901Z,15.80
2018-09-10T08:16:49.916Z,13.10
2018-09-10T08:19:18.980Z,6.57
2018-09-10T08:21:48.275Z,10.63
2018-09-10T08:24:17.369Z,14.53
2018-09-10T08:26:46.642Z,11.70
2018-09-10T08:29:15.857Z,9.33
2018-09-10T08:31:45.189Z,11.20
2018-09-10T08:34:14.207Z,8.73
2018-09-10T08:36:43.786Z,6.80
2018-09-10T08:39:13.175Z,9.33
2018-09-10T08:41:42.359Z,6.73
2018-09-10T08:44:11.474Z,10.60
2018-09-10T08:46:40.594Z,12.50
2018-09-10T08:49:09.622Z,5.93
2018-09-10T08:51:38.942Z,5.17
2018-09-10T08:54:08.170Z,6.17
2018-09-10T08:56:37.229Z,6.93
2018-09-10T08:59:06.417Z,6.37
2018-09-10T09:01:35.615Z,6.13
2018-09-10T09:04:05.040Z,5.23
2018-09-10T09:06:34.069Z,4.63
2018-09-10T09:09:03.416Z,5.47
2018-09-10T09:11:32.480Z,4.20
2018-09-10T09:14:01.482Z,4.63
2018-09-10T09:16:30.531Z,4.77
2018-09-10T09:19:01.724Z,3.63
2018-09-10T09:21:30.766Z,6.43
2018-09-10T09:23:59.851Z,11.33
2018-09-10T09:26:28.924Z,5.90
2018-09-10T09:28:57.913Z,4.33
2018-09-10T09:31:27.312Z,2.33
2018-09-10T09:33:56.646Z,2.90
2018-09-10T09:36:31.098Z,5.43
2018-09-10T09:39:05.320Z,6.17
2018-09-10T09:41:39.957Z,6.43
2018-09-10T09:44:14.208Z,4.90
2018-09-10T09:46:43.240Z,3.80
2018-09-10T09:49:12.282Z,5.37
2018-09-10T09:51:41.552Z,12.27
2018-09-10T09:54:10.780Z,6.40
2018-09-10T09:56:39.827Z,6.10
2018-09-10T09:59:09.111Z,4.07
2018-09-10T10:01:45.299Z,5.77
2018-09-10T10:04:15.014Z,5.33
2018-09-10T10:06:44.258Z,5.20
2018-09-10T10:09:13.269Z,6.73
2018-09-10T10:11:42.399Z,5.83
2018-09-10T10:14:11.822Z,7.03
2018-09-10T10:16:40.937Z,7.50
2018-09-10T10:19:09.949Z,6.77
2018-09-10T10:21:39.039Z,8.77
2018-09-10T10:24:08.085Z,5.17
2018-09-10T10:26:37.217Z,12.73
2018-09-10T10:29:06.598Z,5.77
2018-09-10T10:31:35.611Z,7.53
2018-09-10T10:34:04.851Z,5.33
2018-09-10T10:36:34.002Z,6.17
2018-09-10T10:39:04.185Z,6.27
2018-09-10T10:41:33.468Z,4.67
2018-09-10T10:44:02.508Z,5.47
2018-09-10T10:46:31.580Z,6.37
2018-09-10T10:49:00.625Z,10.57
2018-09-10T10:51:29.875Z,7.13
2018-09-10T10:53:58.974Z,9.07
2018-09-10T10:56:28.149Z,5.40
2018-09-10T10:58:57.208Z,7.00
2018-09-10T11:01:26.563Z,6.83
2018-09-10T11:03:55.620Z,3.20
2018-09-10T11:06:25.001Z,6.53
2018-09-10T11:08:54.174Z,5.67
2018-09-10T11:11:23.481Z,3.83
2018-09-10T11:13:52.495Z,14.40
2018-09-10T11:16:21.577Z,5.20
2018-09-10T11:18:50.597Z,4.17
2018-09-10T11:21:19.873Z,2.87
2018-09-10T11:23:49.337Z,5.83
2018-09-10T11:26:18.615Z,10.30
2018-09-10T11:28:47.757Z,16.23
2018-09-10T11:31:16.787Z,8.20
2018-09-10T11:33:45.837Z,7.27
2018-09-10T11:36:14.912Z,5.80
2018-09-10T11:38:43.996Z,4.73
2018-09-10T11:41:13.048Z,6.53
2018-09-10T11:43:42.430Z,4.63
2018-09-10T11:46:11.486Z,4.37
2018-09-10T11:48:40.809Z,7.43
2018-09-10T11:51:09.949Z,3.10
2018-09-10T11:53:39.249Z,7.20
2018-09-10T11:56:08.288Z,6.13
2018-09-10T11:58:38.288Z,4.53
2018-09-10T12:01:07.807Z,7.33
2018-09-10T12:03:36.973Z,4.93
2018-09-10T12:06:06.195Z,4.80
2018-09-10T12:08:35.215Z,4.97
2018-09-10T12:11:04.295Z,1.92
2018-09-10T12:13:33.431Z,4.17
2018-09-10T12:16:02.706Z,6.20
2018-09-10T12:18:31.711Z,6.03
2018-09-10T12:21:00.762Z,6.57
2018-09-10T12:23:29.765Z,8.43
2018-09-10T12:25:59.016Z,8.10
2018-09-10T12:28:28.033Z,6.20
2018-09-10T12:30:57.048Z,2.90
2018-09-10T12:33:27.033Z,3.40
2018-09-10T12:35:56.065Z,3.67
2018-09-10T12:38:25.096Z,3.27
2018-09-10T12:40:54.179Z,3.97
2018-09-10T12:43:23.182Z,4.27
2018-09-10T12:45:52.353Z,5.20
2018-09-10T12:48:21.412Z,7.87
2018-09-10T12:50:50.510Z,3.73
2018-09-10T12:53:19.495Z,7.40
2018-09-10T12:55:48.532Z,3.30
2018-09-10T12:58:17.552Z,5.33
2018-09-10T13:00:46.565Z,2.47
2018-09-10T13:03:15.575Z,4.20
2018-09-10T13:05:44.594Z,4.20
2018-09-10T13:08:13.680Z,3.87
2018-09-10T13:10:42.747Z,6.63
2018-09-10T13:13:11.731Z,3.80
2018-09-10T13:15:41.054Z,4.80
2018-09-10T13:18:10.174Z,1.53
2018-09-10T13:20:39.193Z,6.17
2018-09-10T13:23:08.907Z,5.80
2018-09-10T13:25:38.432Z,5.60
2018-09-10T13:28:07.542Z,3.03
2018-09-10T13:30:36.784Z,3.80
2018-09-10T13:33:06.209Z,3.50
2018-09-10T13:35:35.231Z,2.80
2018-09-10T13:38:04.240Z,4.60
2018-09-10T13:40:33.268Z,4.90
2018-09-10T13:43:02.538Z,2.40
2018-09-10T13:45:31.593Z,7.17
2018-09-10T13:48:00.618Z,5.73
2018-09-10T13:50:29.644Z,4.60
2018-09-10T13:52:58.912Z,3.30
2018-09-10T13:55:28.100Z,6.43
2018-09-10T13:57:57.413Z,2.30
2018-09-10T14:00:26.619Z,4.30
2018-09-10T14:02:55.851Z,8.00
2018-09-10T14:05:24.899Z,5.03
2018-09-10T14:07:54.322Z,1.77
2018-09-10T14:10:23.375Z,4.13
2018-09-10T14:12:52.806Z,5.33
2018-09-10T14:15:21.960Z,3.47
2018-09-10T14:17:50.995Z,5.00
2018-09-10T14:20:20.054Z,4.47
2018-09-10T14:22:49.103Z,4.93
2018-09-10T14:25:18.120Z,4.70
2018-09-10T14:27:47.255Z,5.30
2018-09-10T14:30:16.603Z,4.27
2018-09-10T14:32:45.615Z,5.57
2018-09-10T14:35:14.660Z,4.80
2018-09-10T14:37:43.973Z,4.43
2018-09-10T14:40:13.049Z,4.77
2018-09-10T14:42:42.849Z,3.57
2018-09-10T14:45:11.982Z,6.73
2018-09-10T14:47:41.002Z,3.40
2018-09-10T14:50:10.301Z,3.73
2018-09-10T14:52:39.706Z,4.27
2018-09-10T14:55:08.772Z,4.20
2018-09-10T14:57:38.020Z,3.73
2018-09-10T15:00:07.296Z,4.87
2018-09-10T15:02:36.575Z,5.00
2018-09-10T15:05:05.784Z,4.73
2018-09-10T15:07:35.136Z,4.10
2018-09-10T15:10:04.436Z,4.97
2018-09-10T15:12:33.524Z,2.97
2018-09-10T15:15:02.766Z,6.63
2018-09-10T15:17:31.827Z,5.80
2018-09-10T15:20:01.152Z,9.97
2018-09-10T15:22:30.602Z,8.17
2018-09-10T15:24:59.987Z,7.70
2018-09-10T15:27:29.005Z,4.97
2018-09-10T15:29:58.062Z,6.87
2018-09-10T15:32:27.115Z,5.67
2018-09-10T15:34:56.232Z,4.57
2018-09-10T15:37:25.272Z,7.93
2018-09-10T15:39:54.308Z,5.20
2018-09-10T15:42:23.337Z,5.70
2018-09-10T15:44:52.592Z,6.67
2018-09-10T15:47:21.997Z,8.23
2018-09-10T15:49:51.723Z,5.50
2018-09-10T15:52:20.764Z,5.10
2018-09-10T15:54:49.848Z,5.83
2018-09-10T15:57:18.956Z,5.00
2018-09-10T15:59:48.027Z,6.47
2018-09-10T16:02:17.268Z,4.70
2018-09-10T16:04:46.492Z,4.83
2018-09-10T16:07:15.795Z,3.90
2018-09-10T16:09:45.400Z,5.73
2018-09-10T16:12:14.407Z,6.40
2018-09-10T16:14:43.746Z,3.83
2018-09-10T16:17:13.144Z,8.47
2018-09-10T16:19:42.536Z,13.00
2018-09-10T16:22:11.802Z,12.80
2018-09-10T16:24:40.855Z,11.10
2018-09-10T16:27:09.895Z,2.60
2018-09-10T16:29:39.096Z,5.77
2018-09-10T16:32:09.260Z,6.00
2018-09-10T16:34:39.528Z,7.00
2018-09-10T16:37:08.607Z,5.00
2018-09-10T16:39:37.683Z,6.40
2018-09-10T16:42:06.817Z,5.07
2018-09-10T16:44:36.093Z,4.90
2018-09-10T16:47:05.126Z,5.50
2018-09-10T16:49:34.703Z,5.27
2018-09-10T16:52:04.056Z,3.17
2018-09-10T16:54:33.365Z,5.60
2018-09-10T16:57:02.468Z,5.80
2018-09-10T16:59:31.471Z,5.27
2018-09-10T17:02:00.556Z,12.70
2018-09-10T17:04:29.839Z,7.47
2018-09-10T17:06:58.926Z,7.57
2018-09-10T17:09:28.081Z,4.30
2018-09-10T17:11:57.119Z,4.00
2018-09-10T17:14:29.557Z,5.20
2018-09-10T17:16:58.737Z,4.50
2018-09-10T17:19:27.779Z,5.70
2018-09-10T17:21:56.924Z,6.53
2018-09-10T17:24:26.187Z,5.57
2018-09-10T17:26:55.370Z,5.33
2018-09-10T17:29:24.678Z,4.50
2018-09-10T17:31:54.837Z,3.70
2018-09-10T17:34:24.192Z,4.23
2018-09-10T17:36:53.475Z,4.83
2018-09-10T17:39:22.638Z,10.10
2018-09-10T17:41:52.262Z,3.40
2018-09-10T17:44:21.376Z,4.53
2018-09-10T17:46:50.630Z,3.17
2018-09-10T17:49:20.545Z,5.23
2018-09-10T17:51:49.612Z,5.80
2018-09-10T17:54:19.087Z,5.30
2018-09-10T17:56:48.139Z,6.93
2018-09-10T17:59:17.365Z,7.67
2018-09-10T18:01:50.206Z,5.57
2018-09-10T18:04:19.447Z,3.67
2018-09-10T18:06:48.499Z,6.83
2018-09-10T18:09:17.954Z,7.73
2018-09-10T18:11:50.692Z,7.47
2018-09-10T18:14:19.894Z,6.43
2018-09-10T18:16:49.183Z,3.33
2018-09-10T18:19:19.266Z,7.63
2018-09-10T18:21:48.931Z,5.70
2018-09-10T18:24:18.409Z,9.13
2018-09-10T18:26:48.949Z,4.27
2018-09-10T18:29:18.886Z,7.40
2018-09-10T18:31:47.921Z,4.93
2018-09-10T18:34:17.996Z,7.27
2018-09-10T18:36:47.583Z,5.00
2018-09-10T18:39:17.463Z,7.67
2018-09-10T18:41:47.783Z,5.93
2018-09-10T18:44:16.902Z,3.83
2018-09-10T18:46:46.421Z,10.23
2018-09-10T18:49:15.517Z,3.70
2018-09-10T18:51:44.875Z,6.43
2018-09-10T18:54:16.091Z,5.60
2018-09-10T18:56:45.146Z,3.93
2018-09-10T18:59:14.239Z,4.97
2018-09-10T19:01:43.466Z,4.40
2018-09-10T19:04:12.695Z,4.93
2018-09-10T19:06:41.878Z,5.87
2018-09-10T19:09:11.966Z,4.73
2018-09-10T19:11:41.400Z,8.13
2018-09-10T19:14:10.472Z,4.73
2018-09-10T19:16:40.178Z,4.97
2018-09-10T19:19:09.582Z,4.17
2018-09-10T19:21:38.786Z,5.97
2018-09-10T19:24:08.019Z,6.77
2018-09-10T19:26:37.162Z,4.60
2018-09-10T19:29:06.327Z,6.23
2018-09-10T19:31:35.783Z,6.07
2018-09-10T19:34:04.970Z,6.07
2018-09-10T19:36:34.335Z,4.33
2018-09-10T19:39:04.510Z,4.50
2018-09-10T19:41:33.999Z,3.93
2018-09-10T19:44:03.453Z,6.57
2018-09-10T19:46:32.726Z,3.97
2018-09-10T19:49:02.064Z,6.87
2018-09-10T19:51:32.537Z,4.40
2018-09-10T19:54:02.137Z,5.30
2018-09-10T19:56:32.015Z,3.83
2018-09-10T19:59:01.142Z,4.93
2018-09-10T20:01:30.197Z,8.47
2018-09-10T20:03:59.494Z,7.20
2018-09-10T20:06:28.630Z,5.67
2018-09-10T20:08:57.636Z,6.33
2018-09-10T20:11:26.709Z,5.20
2018-09-10T20:13:55.906Z,6.43
2018-09-10T20:16:25.007Z,5.97
2018-09-10T20:18:54.180Z,6.43
2018-09-10T20:21:23.485Z,4.23
2018-09-10T20:23:52.881Z,3.30
2018-09-10T20:26:21.930Z,5.83
2018-09-10T20:28:51.881Z,4.73
2018-09-10T20:31:20.991Z,8.83
2018-09-10T20:33:55.420Z,7.43
2018-09-10T20:36:24.560Z,6.00
2018-09-10T20:38:54.345Z,9.03
2018-09-10T20:41:23.739Z,5.57
2018-09-10T20:43:53.033Z,7.87
2018-09-10T20:46:22.097Z,6.57
2018-09-10T20:48:51.573Z,5.97
2018-09-10T20:51:21.022Z,7.00
2018-09-10T20:53:50.445Z,8.27
2018-09-10T20:56:19.547Z,10.40
2018-09-10T20:58:48.710Z,6.07
2018-09-10T21:01:18.112Z,6.07
2018-09-10T21:03:47.374Z,6.37
2018-09-10T21:06:16.809Z,8.30
2018-09-10T21:08:46.472Z,7.33
2018-09-10T21:11:15.684Z,5.67
2018-09-10T21:13:45.040Z,6.50
2018-09-10T21:16:14.108Z,7.80
2018-09-10T21:18:43.150Z,7.67
2018-09-10T21:21:12.712Z,9.47
2018-09-10T21:23:41.957Z,8.83
2018-09-10T21:26:11.276Z,8.97
2018-09-10T21:28:40.300Z,7.67
2018-09-10T21:31:09.566Z,9.10
2018-09-10T21:33:38.822Z,7.50
2018-09-10T21:36:07.929Z,7.40
2018-09-10T21:38:37.025Z,8.23
2018-09-10T21:41:06.091Z,6.27
2018-09-10T21:43:35.158Z,5.20
2018-09-10T21:46:04.273Z,6.60
2018-09-10T21:48:33.596Z,5.17
2018-09-10T21:51:02.765Z,6.77
2018-09-10T21:53:32.241Z,5.10
2018-09-10T21:56:01.301Z,4.97
2018-09-10T21:58:31.039Z,4.87
2018-09-10T22:01:00.289Z,6.23
2018-09-10T22:03:29.961Z,10.27
2018-09-10T22:05:58.989Z,6.87
2018-09-10T22:08:28.007Z,6.80
2018-09-10T22:10:57.082Z,4.53
2018-09-10T22:13:26.163Z,7.63
2018-09-10T22:15:55.203Z,4.13
2018-09-10T22:18:24.214Z,6.97
2018-09-10T22:20:53.518Z,7.80
2018-09-10T22:23:22.748Z,4.50
2018-09-10T22:25:51.991Z,5.40
2018-09-10T22:28:20.990Z,5.27
2018-09-10T22:30:50.419Z,3.17
2018-09-10T22:33:19.463Z,6.70
2018-09-10T22:35:48.510Z,7.07
2018-09-10T22:38:17.519Z,5.37
2018-09-10T22:40:46.564Z,6.80
2018-09-10T22:43:15.759Z,6.00
2018-09-10T22:45:45.012Z,5.70
2018-09-10T22:48:14.249Z,5.10
2018-09-10T22:50:43.706Z,6.63
2018-09-10T22:53:12.947Z,11.10
2018-09-10T22:55:42.247Z,5.87
2018-09-10T22:58:11.599Z,6.27
2018-09-10T23:00:41.140Z,6.00
2018-09-10T23:03:10.164Z,8.27
2018-09-10T23:05:39.169Z,5.00
2018-09-10T23:08:08.174Z,4.63
2018-09-10T23:10:37.200Z,4.17
2018-09-10T23:13:06.697Z,6.53
2018-09-10T23:15:35.723Z,8.00
2018-09-10T23:18:04.992Z,5.17
2018-09-10T23:20:34.063Z,7.03
2018-09-10T23:23:03.220Z,8.00
2018-09-10T23:25:32.222Z,7.00
2018-09-10T23:28:01.439Z,7.33
2018-09-10T23:30:30.464Z,5.60
2018-09-10T23:33:00.375Z,7.53
2018-09-10T23:35:29.956Z,6.53
2018-09-10T23:37:59.144Z,5.83
2018-09-10T23:40:28.438Z,5.63
2018-09-10T23:42:57.462Z,6.57
2018-09-10T23:45:26.758Z,4.67
2018-09-10T23:47:55.814Z,7.40
2018-09-10T23:50:25.468Z,4.53
2018-09-10T23:52:54.757Z,4.60
2018-09-10T23:55:23.955Z,7.73
2018-09-10T23:57:52.973Z,6.87
